createdAt,value
2019-02-24T00:01:34.530Z,99.90
2019-02-24T00:04:22.366Z,99.90
2019-02-24T00:10:17.459Z,99.90
2019-02-24T00:13:05.538Z,99.90
2019-02-24T00:18:55.683Z,99.90
2019-02-24T00:21:43.851Z,99.90
2019-02-24T00:24:31.991Z,99.90
2019-02-24T00:27:19.827Z,99.90
2019-02-24T00:30:07.670Z,99.90
2019-02-24T00:32:55.502Z,99.90
2019-02-24T00:35:43.346Z,99.90
2019-02-24T00:38:31.671Z,99.90
2019-02-24T00:41:19.514Z,99.90
2019-02-24T00:44:07.606Z,99.90
2019-02-24T00:46:55.696Z,99.90
2019-02-24T00:49:43.542Z,99.90
2019-02-24T00:52:31.646Z,99.90
2019-02-24T00:55:19.962Z,99.90
2019-02-24T00:58:00.731Z,99.90
2019-02-24T01:00:41.951Z,99.90
2019-02-24T01:03:23.258Z,99.90
2019-02-24T01:06:04.159Z,99.90
2019-02-24T01:08:45.050Z,99.90
2019-02-24T01:11:26.121Z,99.90
2019-02-24T01:14:06.963Z,99.90
2019-02-24T01:16:47.242Z,99.90
2019-02-24T01:19:27.783Z,99.90
2019-02-24T01:22:08.462Z,99.90
2019-02-24T01:24:48.852Z,99.90
2019-02-24T01:27:29.494Z,99.90
2019-02-24T01:30:10.722Z,99.90
2019-02-24T01:32:52.871Z,99.90
2019-02-24T01:35:33.364Z,99.90
2019-02-24T01:38:13.710Z,99.90
2019-02-24T01:40:55.238Z,99.90
2019-02-24T01:46:22.175Z,99.90
2019-02-24T01:51:49.550Z,99.90
2019-02-24T01:57:15.931Z,99.90
2019-02-24T02:05:29.554Z,99.90
2019-02-24T02:08:09.935Z,99.90
2019-02-24T02:19:08.828Z,99.90
2019-02-24T02:27:37.526Z,99.90
2019-02-24T02:38:42.681Z,99.90
2019-02-24T02:41:23.792Z,99.90
2019-02-24T02:44:04.551Z,99.90
2019-02-24T02:46:45.118Z,99.90
2019-02-24T02:49:25.629Z,99.90
2019-02-24T02:52:06.290Z,99.90
2019-02-24T02:57:36.786Z,99.90
2019-02-24T03:00:17.164Z,99.90
2019-02-24T03:02:57.806Z,99.90
2019-02-24T03:05:40.442Z,99.90
2019-02-24T03:08:23.004Z,99.90
2019-02-24T03:11:03.519Z,99.90
2019-02-24T03:13:44.303Z,99.90
2019-02-24T03:16:13.128Z,99.90
2019-02-24T03:18:42.006Z,99.90
2019-02-24T03:21:10.583Z,99.90
2019-02-24T03:23:39.471Z,99.90
2019-02-24T03:26:08.051Z,99.90
2019-02-24T03:28:36.644Z,99.90
2019-02-24T03:31:05.528Z,99.90
2019-02-24T03:33:34.106Z,99.90
2019-02-24T03:36:03.010Z,99.90
2019-02-24T03:38:31.850Z,99.90
2019-02-24T03:41:01.107Z,99.90
2019-02-24T03:43:29.670Z,99.90
2019-02-24T03:45:58.328Z,99.90
2019-02-24T03:48:26.938Z,99.90
2019-02-24T03:50:55.526Z,99.90
2019-02-24T03:53:24.146Z,99.90
2019-02-24T03:55:52.719Z,99.90
2019-02-24T03:58:21.310Z,99.90
2019-02-24T04:00:50.170Z,99.90
2019-02-24T04:03:19.147Z,99.90
2019-02-24T04:05:47.760Z,99.90
2019-02-24T04:08:16.310Z,99.90
2019-02-24T04:10:45.252Z,99.90
2019-02-24T04:13:14.134Z,99.90
2019-02-24T04:15:42.696Z,99.90
2019-02-24T04:18:12.123Z,99.90
2019-02-24T04:20:41.323Z,99.90
2019-02-24T04:23:09.956Z,99.90
2019-02-24T04:25:38.486Z,99.90
2019-02-24T04:28:07.050Z,99.90
2019-02-24T04:30:35.631Z,99.90
2019-02-24T04:33:04.863Z,99.90
2019-02-24T04:35:33.412Z,99.90
2019-02-24T04:38:02.309Z,99.90
2019-02-24T04:40:31.163Z,99.90
2019-02-24T04:43:00.182Z,99.90
2019-02-24T04:45:28.774Z,99.90
2019-02-24T04:47:57.671Z,99.90
2019-02-24T04:50:26.571Z,99.90
2019-02-24T04:52:55.152Z,99.90
2019-02-24T04:55:23.725Z,99.90
2019-02-24T04:57:53.257Z,99.90
2019-02-24T05:00:22.161Z,99.90
2019-02-24T05:02:51.019Z,99.90
2019-02-24T05:05:19.595Z,99.90
2019-02-24T05:07:49.123Z,99.90
2019-02-24T05:10:17.687Z,99.90
2019-02-24T05:12:46.658Z,99.90
2019-02-24T05:15:15.268Z,99.90
2019-02-24T05:17:43.846Z,99.90
2019-02-24T05:20:12.759Z,99.90
2019-02-24T05:22:41.437Z,99.90
2019-02-24T05:25:10.003Z,99.90
2019-02-24T05:27:38.636Z,99.90
2019-02-24T05:30:07.266Z,99.90
2019-02-24T05:32:36.265Z,99.90
2019-02-24T05:35:05.284Z,99.90
2019-02-24T05:37:34.147Z,99.90
2019-02-24T05:40:02.739Z,99.90
2019-02-24T05:42:31.647Z,99.90
2019-02-24T05:45:00.380Z,99.90
2019-02-24T05:47:29.331Z,99.90
2019-02-24T05:49:58.426Z,99.90
2019-02-24T05:52:27.391Z,99.90
2019-02-24T05:54:55.992Z,99.90
2019-02-24T05:57:24.583Z,99.90
2019-02-24T05:59:55.479Z,99.90
2019-02-24T06:02:23.488Z,99.90
2019-02-24T06:04:52.061Z,99.90
2019-02-24T06:07:20.679Z,99.90
2019-02-24T06:09:49.511Z,99.90
2019-02-24T06:12:18.110Z,99.90
2019-02-24T06:14:47.030Z,99.90
2019-02-24T06:17:16.214Z,99.90
2019-02-24T06:19:44.789Z,99.90
2019-02-24T06:22:13.366Z,99.90
2019-02-24T06:24:42.349Z,99.90
2019-02-24T06:27:10.945Z,99.90
2019-02-24T06:29:39.539Z,99.90
2019-02-24T06:32:08.121Z,99.90
2019-02-24T06:34:36.713Z,99.90
2019-02-24T06:37:05.291Z,99.90
2019-02-24T06:39:34.610Z,99.90
2019-02-24T06:42:03.179Z,99.90
2019-02-24T06:44:31.754Z,99.90
2019-02-24T06:47:00.651Z,99.90
2019-02-24T06:49:29.233Z,99.90
2019-02-24T06:51:58.139Z,99.90
2019-02-24T06:54:27.231Z,99.90
2019-02-24T06:56:55.822Z,99.90
2019-02-24T06:59:24.997Z,99.90
2019-02-24T07:01:53.974Z,99.90
2019-02-24T07:04:22.808Z,99.90
2019-02-24T07:06:51.377Z,99.90
2019-02-24T07:09:19.970Z,99.90
2019-02-24T07:11:48.533Z,99.90
2019-02-24T07:14:17.420Z,99.90
2019-02-24T07:16:46.337Z,99.90
2019-02-24T07:19:15.176Z,99.90
2019-02-24T07:21:44.102Z,99.90
2019-02-24T07:24:12.678Z,99.90
2019-02-24T07:26:41.266Z,99.90
2019-02-24T07:29:09.838Z,99.90
2019-02-24T07:31:38.442Z,99.90
2019-02-24T07:34:07.356Z,99.90
2019-02-24T07:36:35.905Z,99.90
2019-02-24T07:39:04.870Z,99.90
2019-02-24T07:41:33.890Z,99.90
2019-02-24T07:44:02.485Z,99.90
2019-02-24T07:46:31.051Z,99.90
2019-02-24T07:48:59.650Z,99.90
2019-02-24T07:51:28.640Z,99.90
2019-02-24T07:53:57.824Z,99.90
2019-02-24T07:56:26.456Z,99.90
2019-02-24T07:58:55.402Z,99.90
2019-02-24T08:01:23.994Z,99.90
2019-02-24T08:03:52.590Z,99.40
2019-02-24T08:06:21.166Z,99.70
2019-02-24T08:08:50.087Z,98.90
2019-02-24T08:11:19.582Z,97.80
2019-02-24T08:13:48.475Z,97.10
2019-02-24T08:16:17.022Z,99.90
2019-02-24T08:18:49.480Z,99.90
2019-02-24T08:21:16.075Z,99.90
2019-02-24T08:23:44.630Z,99.90
2019-02-24T08:26:13.542Z,96.00
2019-02-24T08:28:42.394Z,91.10
2019-02-24T08:31:11.331Z,83.90
2019-02-24T08:33:39.902Z,68.90
2019-02-24T08:36:08.466Z,66.10
2019-02-24T08:38:37.391Z,65.20
2019-02-24T08:41:05.948Z,60.00
2019-02-24T08:43:34.863Z,61.20
2019-02-24T08:46:03.439Z,52.20
2019-02-24T08:48:32.002Z,51.50
2019-02-24T08:51:00.978Z,52.50
2019-02-24T08:53:29.580Z,54.70
2019-02-24T08:55:58.190Z,55.20
2019-02-24T08:58:27.131Z,57.30
2019-02-24T09:00:56.058Z,59.70
2019-02-24T09:03:24.639Z,59.10
2019-02-24T09:05:53.222Z,59.70
2019-02-24T09:08:21.807Z,59.90
2019-02-24T09:10:50.389Z,60.50
2019-02-24T09:13:18.972Z,60.70
2019-02-24T09:15:47.641Z,60.50
2019-02-24T09:18:16.285Z,61.10
2019-02-24T09:20:44.966Z,60.60
2019-02-24T09:23:14.692Z,60.20
2019-02-24T09:25:44.439Z,59.70
2019-02-24T09:28:13.067Z,59.20
2019-02-24T09:30:41.815Z,58.90
2019-02-24T09:33:10.400Z,58.40
2019-02-24T09:35:39.280Z,58.60
2019-02-24T09:38:07.864Z,58.50
2019-02-24T09:40:36.742Z,58.80
2019-02-24T09:43:05.336Z,54.30
2019-02-24T09:45:34.232Z,56.10
2019-02-24T09:48:02.829Z,57.10
2019-02-24T09:50:32.109Z,57.30
2019-02-24T09:53:00.679Z,55.90
2019-02-24T09:55:29.279Z,54.30
2019-02-24T09:57:58.304Z,54.10
2019-02-24T10:00:26.945Z,53.70
2019-02-24T10:02:57.516Z,52.30
2019-02-24T10:05:26.379Z,51.70
2019-02-24T10:07:55.379Z,51.50
2019-02-24T10:10:24.261Z,50.40
2019-02-24T10:12:53.180Z,49.80
2019-02-24T10:15:22.296Z,49.50
2019-02-24T10:17:50.933Z,48.80
2019-02-24T10:20:19.544Z,48.60
2019-02-24T10:22:48.284Z,47.70
2019-02-24T10:25:17.310Z,46.00
2019-02-24T10:27:46.245Z,45.70
2019-02-24T10:30:15.215Z,45.30
2019-02-24T10:32:44.015Z,45.40
2019-02-24T10:35:12.910Z,45.10
2019-02-24T10:37:42.001Z,43.50
2019-02-24T10:40:12.547Z,43.60
2019-02-24T10:42:41.367Z,43.20
2019-02-24T10:45:29.218Z,41.10
2019-02-24T10:48:17.081Z,40.40
2019-02-24T10:51:04.931Z,39.30
2019-02-24T10:53:52.787Z,40.10
2019-02-24T10:56:33.661Z,39.60
2019-02-24T10:59:14.058Z,39.10
2019-02-24T11:01:54.851Z,38.00
2019-02-24T11:04:35.963Z,38.00
2019-02-24T11:07:16.735Z,39.60
2019-02-24T11:09:57.590Z,38.70
2019-02-24T11:12:38.328Z,38.40
2019-02-24T11:15:19.092Z,37.20
2019-02-24T11:18:01.494Z,37.50
2019-02-24T11:20:42.749Z,34.70
2019-02-24T11:23:23.787Z,36.10
2019-02-24T11:26:04.607Z,35.50
2019-02-24T11:28:45.327Z,33.20
2019-02-24T11:31:26.338Z,35.50
2019-02-24T11:34:07.562Z,35.60
2019-02-24T11:36:48.258Z,33.80
2019-02-24T11:39:28.918Z,32.30
2019-02-24T11:42:09.953Z,34.00
2019-02-24T11:44:50.611Z,33.60
2019-02-24T11:47:31.679Z,32.70
2019-02-24T11:50:12.283Z,32.50
2019-02-24T11:52:53.731Z,32.20
2019-02-24T11:55:34.891Z,33.40
2019-02-24T11:58:15.859Z,33.00
2019-02-24T12:00:56.171Z,33.10
2019-02-24T12:06:26.312Z,32.60
2019-02-24T12:09:06.622Z,32.10
2019-02-24T12:11:47.574Z,32.10
2019-02-24T12:14:28.230Z,31.50
2019-02-24T12:17:09.340Z,31.00
2019-02-24T12:19:49.976Z,31.80
2019-02-24T12:22:30.424Z,32.00
2019-02-24T12:25:11.049Z,31.10
2019-02-24T12:27:51.875Z,30.10
2019-02-24T12:30:32.335Z,28.50
2019-02-24T12:33:12.775Z,28.50
2019-02-24T12:35:53.239Z,29.90
2019-02-24T12:38:34.071Z,29.70
2019-02-24T12:41:15.498Z,30.30
2019-02-24T12:43:55.912Z,31.30
2019-02-24T12:46:36.635Z,29.90
2019-02-24T12:49:17.853Z,29.00
2019-02-24T12:51:58.742Z,29.30
2019-02-24T12:54:39.508Z,29.00
2019-02-24T12:57:19.950Z,28.40
2019-02-24T13:00:00.761Z,29.70
2019-02-24T13:02:41.561Z,29.60
2019-02-24T13:05:22.276Z,29.20
2019-02-24T13:08:03.752Z,29.20
2019-02-24T13:10:44.841Z,27.50
2019-02-24T13:13:25.931Z,27.90
2019-02-24T13:16:07.115Z,27.60
2019-02-24T13:18:47.659Z,27.60
2019-02-24T13:24:17.479Z,28.70
2019-02-24T13:26:58.247Z,28.90
2019-02-24T13:29:39.403Z,29.00
2019-02-24T13:35:02.975Z,27.90
2019-02-24T13:40:29.609Z,28.60
2019-02-24T13:54:13.607Z,28.10
2019-02-24T14:05:12.247Z,27.80
2019-02-24T14:30:21.947Z,26.40
2019-02-24T14:33:02.999Z,27.80
2019-02-24T14:35:43.611Z,27.20
2019-02-24T14:38:24.059Z,26.00
2019-02-24T14:41:04.695Z,27.30
2019-02-24T14:43:45.102Z,27.80
2019-02-24T14:46:25.624Z,27.50
2019-02-24T14:49:06.151Z,28.20
2019-02-24T14:51:46.595Z,27.40
2019-02-24T14:54:27.445Z,27.80
2019-02-24T14:57:08.811Z,28.70
2019-02-24T14:59:49.763Z,29.00
2019-02-24T15:02:30.295Z,28.70
2019-02-24T15:05:11.434Z,29.20
2019-02-24T15:07:52.663Z,29.60
2019-02-24T15:10:33.343Z,29.40
2019-02-24T15:13:14.127Z,28.50
2019-02-24T15:15:54.439Z,28.70
2019-02-24T15:18:35.056Z,29.80
2019-02-24T15:21:15.835Z,31.10
2019-02-24T15:23:57.082Z,30.40
2019-02-24T15:26:37.652Z,30.40
2019-02-24T15:29:18.418Z,30.00
2019-02-24T15:31:59.263Z,30.10
2019-02-24T15:34:40.415Z,30.30
2019-02-24T15:37:20.971Z,30.00
2019-02-24T15:40:01.855Z,30.70
2019-02-24T15:42:42.203Z,31.60
2019-02-24T15:45:22.716Z,30.80
2019-02-24T15:48:03.244Z,31.70
2019-02-24T15:50:43.708Z,31.60
2019-02-24T15:53:24.451Z,31.50
2019-02-24T15:56:05.172Z,31.60
2019-02-24T15:58:48.955Z,31.90
2019-02-24T16:01:30.311Z,31.60
2019-02-24T16:04:11.482Z,31.50
2019-02-24T16:06:52.119Z,31.80
2019-02-24T16:09:32.884Z,31.80
2019-02-24T16:12:14.200Z,32.60
2019-02-24T16:14:55.290Z,33.70
2019-02-24T16:17:36.168Z,34.20
2019-02-24T16:20:17.470Z,34.80
2019-02-24T16:22:58.207Z,35.00
2019-02-24T16:25:39.350Z,35.20
2019-02-24T16:28:20.322Z,36.00
2019-02-24T16:31:00.843Z,35.90
2019-02-24T16:33:41.537Z,35.90
2019-02-24T16:36:22.347Z,36.00
2019-02-24T16:39:04.355Z,36.40
2019-02-24T16:41:44.871Z,36.50
2019-02-24T16:44:25.437Z,36.80
2019-02-24T16:46:53.978Z,37.30
2019-02-24T16:49:22.559Z,37.40
2019-02-24T16:51:51.110Z,37.80
2019-02-24T16:54:20.339Z,38.50
2019-02-24T16:56:48.918Z,38.40
2019-02-24T16:59:17.522Z,38.50
2019-02-24T17:01:46.074Z,39.00
2019-02-24T17:04:14.650Z,39.60
2019-02-24T17:06:43.246Z,39.70
2019-02-24T17:09:11.818Z,40.60
2019-02-24T17:11:40.692Z,41.40
2019-02-24T17:14:09.674Z,41.70
2019-02-24T17:16:38.298Z,41.80
2019-02-24T17:19:06.866Z,42.80
2019-02-24T17:21:35.467Z,43.50
2019-02-24T17:24:04.034Z,43.40
2019-02-24T17:26:32.962Z,43.40
2019-02-24T17:29:01.791Z,43.60
2019-02-24T17:31:30.747Z,44.20
2019-02-24T17:33:59.575Z,44.50
2019-02-24T17:36:28.235Z,44.90
2019-02-24T17:38:56.871Z,45.50
2019-02-24T17:41:25.905Z,46.00
2019-02-24T17:43:54.884Z,46.40
2019-02-24T17:46:23.697Z,46.50
2019-02-24T17:48:52.607Z,46.60
2019-02-24T17:51:22.130Z,46.40
2019-02-24T17:53:51.088Z,46.50
2019-02-24T17:56:20.047Z,47.20
2019-02-24T17:58:48.641Z,47.30
2019-02-24T18:01:17.198Z,47.20
2019-02-24T18:03:45.790Z,47.30
2019-02-24T18:06:14.361Z,47.60
2019-02-24T18:08:42.962Z,47.50
2019-02-24T18:11:11.539Z,47.80
2019-02-24T18:13:40.754Z,48.40
2019-02-24T18:16:09.357Z,48.20
2019-02-24T18:18:38.337Z,48.80
2019-02-24T18:21:06.894Z,48.60
2019-02-24T18:23:35.486Z,49.60
2019-02-24T18:26:04.422Z,51.90
2019-02-24T18:28:33.790Z,52.80
2019-02-24T18:31:02.683Z,53.10
2019-02-24T18:33:31.250Z,53.10
2019-02-24T18:35:59.830Z,54.10
2019-02-24T18:38:28.743Z,55.40
2019-02-24T18:40:57.298Z,55.80
2019-02-24T18:43:26.210Z,55.50
2019-02-24T18:45:55.098Z,55.70
2019-02-24T18:48:23.694Z,55.70
2019-02-24T18:50:52.583Z,56.10
2019-02-24T18:53:21.503Z,56.90
2019-02-24T18:55:50.459Z,57.10
2019-02-24T18:58:21.062Z,57.10
2019-02-24T19:00:50.031Z,57.70
2019-02-24T19:03:18.659Z,57.10
2019-02-24T19:05:47.558Z,59.50
2019-02-24T19:08:16.434Z,62.70
2019-02-24T19:10:45.294Z,66.00
2019-02-24T19:13:13.915Z,67.70
2019-02-24T19:15:42.502Z,68.70
2019-02-24T19:18:11.383Z,66.70
2019-02-24T19:20:40.310Z,65.50
2019-02-24T19:23:08.858Z,64.00
2019-02-24T19:25:37.451Z,63.50
2019-02-24T19:28:06.027Z,64.90
2019-02-24T19:30:34.613Z,65.60
2019-02-24T19:33:03.191Z,66.40
2019-02-24T19:35:32.014Z,66.00
2019-02-24T19:38:00.567Z,66.50
2019-02-24T19:40:29.483Z,68.00
2019-02-24T19:42:58.312Z,68.00
2019-02-24T19:45:27.306Z,68.50
2019-02-24T19:47:56.146Z,68.50
2019-02-24T19:50:24.729Z,69.30
2019-02-24T19:52:53.622Z,71.10
2019-02-24T19:55:22.267Z,71.40
2019-02-24T19:57:51.203Z,72.10
2019-02-24T20:00:20.747Z,73.30
2019-02-24T20:02:49.390Z,73.90
2019-02-24T20:05:18.015Z,73.40
2019-02-24T20:07:46.816Z,73.40
2019-02-24T20:10:16.865Z,76.00
2019-02-24T20:12:45.783Z,77.90
2019-02-24T20:15:14.693Z,78.90
2019-02-24T20:17:43.242Z,79.60
2019-02-24T20:20:12.491Z,78.70
2019-02-24T20:22:41.474Z,80.00
2019-02-24T20:25:11.123Z,82.90
2019-02-24T20:27:39.725Z,84.30
2019-02-24T20:30:12.387Z,84.40
2019-02-24T20:32:41.039Z,87.20
2019-02-24T20:35:10.103Z,88.50
2019-02-24T20:37:38.671Z,90.00
2019-02-24T20:40:07.687Z,90.50
2019-02-24T20:42:36.574Z,91.00
2019-02-24T20:45:05.847Z,92.10
2019-02-24T20:47:34.387Z,92.00
2019-02-24T20:50:03.355Z,92.40
2019-02-24T20:52:31.929Z,92.00
2019-02-24T20:55:00.823Z,92.90
2019-02-24T20:57:29.734Z,93.20
2019-02-24T20:59:58.282Z,93.60
2019-02-24T21:02:26.874Z,93.90
2019-02-24T21:04:55.780Z,93.40
2019-02-24T21:07:24.342Z,93.60
2019-02-24T21:09:53.256Z,95.20
2019-02-24T21:12:22.148Z,94.90
2019-02-24T21:14:51.031Z,94.90
2019-02-24T21:17:19.914Z,94.90
2019-02-24T21:19:48.842Z,94.80
2019-02-24T21:22:17.781Z,95.70
2019-02-24T21:24:47.007Z,96.40
2019-02-24T21:27:15.867Z,96.40
2019-02-24T21:29:45.097Z,97.20
2019-02-24T21:32:14.608Z,98.00
2019-02-24T21:34:43.166Z,97.60
2019-02-24T21:37:11.742Z,97.80
2019-02-24T21:39:40.334Z,98.60
2019-02-24T21:42:08.919Z,99.10
2019-02-24T21:44:37.882Z,99.40
2019-02-24T21:47:07.231Z,99.80
2019-02-24T21:49:35.831Z,99.90
2019-02-24T21:52:04.474Z,99.90
2019-02-24T21:54:33.390Z,99.90
2019-02-24T21:57:02.280Z,99.90
2019-02-24T21:59:36.783Z,99.90
2019-02-24T22:02:01.394Z,99.90
2019-02-24T22:04:29.958Z,99.90
2019-02-24T22:06:58.551Z,99.90
2019-02-24T22:09:27.450Z,99.90
2019-02-24T22:11:56.351Z,99.90
2019-02-24T22:14:24.903Z,99.90
2019-02-24T22:16:53.507Z,99.70
2019-02-24T22:19:22.070Z,99.80
2019-02-24T22:21:50.666Z,99.90
2019-02-24T22:24:19.238Z,99.90
2019-02-24T22:26:47.830Z,99.90
2019-02-24T22:29:16.417Z,99.90
2019-02-24T22:31:45.324Z,99.90
2019-02-24T22:34:14.155Z,99.90
2019-02-24T22:36:42.774Z,99.90
2019-02-24T22:39:11.795Z,99.90
2019-02-24T22:41:40.362Z,99.90
2019-02-24T22:44:08.934Z,99.90
2019-02-24T22:46:57.093Z,99.90
2019-02-24T22:49:45.230Z,99.90
2019-02-24T22:52:33.036Z,99.90
2019-02-24T22:58:09.968Z,99.90
2019-02-24T23:01:01.402Z,99.90
2019-02-24T23:03:49.271Z,99.90
2019-02-24T23:06:37.359Z,99.90
2019-02-24T23:09:25.263Z,99.90
2019-02-24T23:12:13.354Z,99.90
2019-02-24T23:15:01.490Z,99.90
2019-02-24T23:17:49.627Z,99.90
2019-02-24T23:20:37.474Z,99.90
2019-02-24T23:23:25.586Z,99.90
2019-02-24T23:26:13.431Z,99.90
2019-02-24T23:29:01.283Z,99.90
2019-02-24T23:31:49.122Z,99.90
2019-02-24T23:34:37.270Z,99.90
2019-02-24T23:37:25.104Z,99.90
2019-02-24T23:40:12.960Z,99.90
2019-02-24T23:43:00.810Z,99.90
2019-02-24T23:45:48.654Z,99.90
2019-02-24T23:51:35.134Z,99.90
2019-02-24T23:54:22.990Z,99.90
2019-02-24T23:57:11.079Z,99.90
2019-02-24T23:59:52.118Z,99.90
